createdAt,value
2023-02-04T00:00:21.678Z,1.40
2023-02-04T00:03:23.164Z,1.48
2023-02-04T00:06:24.685Z,1.30
2023-02-04T00:09:26.194Z,1.40
2023-02-04T00:12:27.677Z,1.33
2023-02-04T00:15:29.885Z,1.30
2023-02-04T00:18:31.323Z,1.30
2023-02-04T00:21:33.073Z,1.30
2023-02-04T00:24:38.186Z,1.20
2023-02-04T00:27:39.754Z,1.33
2023-02-04T00:30:41.321Z,1.30
2023-02-04T00:33:43.905Z,1.20
2023-02-04T00:36:45.536Z,1.50
2023-02-04T00:39:47.263Z,1.20
2023-02-04T00:42:48.794Z,1.45
2023-02-04T00:45:50.344Z,1.13
2023-02-04T00:48:51.912Z,1.20
2023-02-04T00:51:53.371Z,1.25
2023-02-04T00:54:54.850Z,1.02
2023-02-04T00:57:56.957Z,1.30
2023-02-04T01:00:58.474Z,1.15
2023-02-04T01:04:00.144Z,1.20
2023-02-04T01:07:01.726Z,0.95
2023-02-04T01:10:03.956Z,1.30
2023-02-04T01:13:05.501Z,1.27
2023-02-04T01:16:06.991Z,1.10
2023-02-04T01:19:08.946Z,1.20
2023-02-04T01:22:10.450Z,1.40
2023-02-04T01:25:12.049Z,1.00
2023-02-04T01:28:17.024Z,1.05
2023-02-04T01:31:18.666Z,1.13
2023-02-04T01:34:20.365Z,1.00
2023-02-04T01:37:21.962Z,1.00
2023-02-04T01:40:23.738Z,0.93
2023-02-04T01:43:25.583Z,1.00
2023-02-04T01:46:27.326Z,1.02
2023-02-04T01:49:29.424Z,1.10
2023-02-04T01:52:35.228Z,0.93
2023-02-04T01:55:36.798Z,0.98
2023-02-04T01:58:38.289Z,1.10
2023-02-04T02:01:41.814Z,1.30
2023-02-04T02:04:43.377Z,1.20
2023-02-04T02:07:45.020Z,1.00
2023-02-04T02:10:49.141Z,0.98
2023-02-04T02:13:50.764Z,1.10
2023-02-04T02:16:52.357Z,1.02
2023-02-04T02:19:53.888Z,0.90
2023-02-04T02:23:26.961Z,1.17
2023-02-04T02:26:28.758Z,1.00
2023-02-04T02:29:30.403Z,0.90
2023-02-04T02:32:32.127Z,1.13
2023-02-04T02:35:34.343Z,1.23
2023-02-04T02:38:36.089Z,1.00
2023-02-04T02:41:38.010Z,0.80
2023-02-04T02:44:39.596Z,1.10
2023-02-04T02:47:41.245Z,0.90
2023-02-04T02:50:43.713Z,0.95
2023-02-04T02:53:47.893Z,0.90
2023-02-04T02:56:50.157Z,1.10
2023-02-04T02:59:52.168Z,0.90
2023-02-04T03:03:06.538Z,0.95
2023-02-04T03:06:13.309Z,0.85
2023-02-04T03:09:16.016Z,0.98
2023-02-04T03:12:21.990Z,1.10
2023-02-04T03:15:23.606Z,0.77
2023-02-04T03:18:25.353Z,0.90
2023-02-04T03:21:27.353Z,0.85
2023-02-04T03:24:28.944Z,0.90
2023-02-04T03:27:32.638Z,0.77
2023-02-04T03:30:34.262Z,1.00
2023-02-04T03:33:35.931Z,0.90
2023-02-04T03:36:37.661Z,1.00
2023-02-04T03:39:40.299Z,0.90
2023-02-04T03:42:41.898Z,0.80
2023-02-04T03:45:45.755Z,0.77
2023-02-04T03:48:47.396Z,0.90
2023-02-04T03:51:48.985Z,1.08
2023-02-04T03:54:50.492Z,0.82
2023-02-04T03:57:53.130Z,0.80
2023-02-04T04:00:54.607Z,0.77
2023-02-04T04:03:56.100Z,0.70
2023-02-04T04:06:57.669Z,1.15
2023-02-04T04:09:59.176Z,0.80
2023-02-04T04:13:00.658Z,0.80
2023-02-04T04:16:03.856Z,0.80
2023-02-04T04:19:05.413Z,0.82
2023-02-04T04:22:06.981Z,0.90
2023-02-04T04:25:08.711Z,1.08
2023-02-04T04:28:11.630Z,0.80
2023-02-04T04:31:13.461Z,0.80
2023-02-04T04:34:15.052Z,1.10
2023-02-04T04:37:16.679Z,0.77
2023-02-04T04:40:18.376Z,1.05
2023-02-04T04:43:20.110Z,0.80
2023-02-04T04:46:21.704Z,0.70
2023-02-04T04:49:24.143Z,0.80
2023-02-04T04:52:25.620Z,0.68
2023-02-04T04:55:27.140Z,0.75
2023-02-04T04:58:28.633Z,0.75
2023-02-04T05:01:30.146Z,0.82
2023-02-04T05:04:31.729Z,0.82
2023-02-04T05:07:33.281Z,0.80
2023-02-04T05:10:34.751Z,0.70
2023-02-04T05:13:36.210Z,0.65
2023-02-04T05:16:37.861Z,0.70
2023-02-04T05:19:39.382Z,0.70
2023-02-04T05:22:40.877Z,0.70
2023-02-04T05:25:42.553Z,0.80
2023-02-04T05:28:44.043Z,0.70
2023-02-04T05:31:45.625Z,0.80
2023-02-04T05:34:47.239Z,0.70
2023-02-04T05:37:48.724Z,0.80
2023-02-04T05:40:50.221Z,0.60
2023-02-04T05:43:51.753Z,0.70
2023-02-04T05:46:53.257Z,0.60
2023-02-04T05:49:54.822Z,0.80
2023-02-04T05:52:56.516Z,0.80
2023-02-04T05:55:58.018Z,0.70
2023-02-04T05:58:59.525Z,0.57
2023-02-04T06:02:01.044Z,0.60
2023-02-04T06:05:02.551Z,0.70
2023-02-04T06:08:04.290Z,0.70
2023-02-04T06:11:05.849Z,0.88
2023-02-04T06:14:07.845Z,0.60
2023-02-04T06:17:09.375Z,0.70
2023-02-04T06:20:13.333Z,0.80
2023-02-04T06:23:14.917Z,0.70
2023-02-04T06:26:16.432Z,0.77
2023-02-04T06:29:17.985Z,0.70
2023-02-04T06:32:20.689Z,0.70
2023-02-04T06:35:22.175Z,0.60
2023-02-04T06:38:23.680Z,0.50
2023-02-04T06:41:25.243Z,0.63
2023-02-04T06:44:26.757Z,0.68
2023-02-04T06:47:28.308Z,0.55
2023-02-04T06:50:30.145Z,0.70
2023-02-04T06:53:31.868Z,0.50
2023-02-04T06:56:33.358Z,0.73
2023-02-04T06:59:36.472Z,0.70
2023-02-04T07:02:39.595Z,0.60
2023-02-04T07:05:41.196Z,0.60
2023-02-04T07:08:42.680Z,0.52
2023-02-04T07:11:44.139Z,0.52
2023-02-04T07:14:45.642Z,0.57
2023-02-04T07:17:47.194Z,0.60
2023-02-04T07:20:48.679Z,0.30
2023-02-04T07:23:50.141Z,0.70
2023-02-04T07:26:51.627Z,0.68
2023-02-04T07:29:53.074Z,0.60
2023-02-04T07:32:54.842Z,0.68
2023-02-04T07:35:56.273Z,0.77
2023-02-04T07:38:57.714Z,0.60
2023-02-04T07:41:59.224Z,0.70
2023-02-04T07:45:08.517Z,0.70
2023-02-04T07:48:10.869Z,0.50
2023-02-04T07:51:12.362Z,0.60
2023-02-04T07:54:13.930Z,0.65
2023-02-04T07:57:15.455Z,0.60
2023-02-04T08:00:17.258Z,0.60
2023-02-04T08:03:18.803Z,0.68
2023-02-04T08:06:20.297Z,0.52
2023-02-04T08:09:21.837Z,0.70
2023-02-04T08:12:23.409Z,0.60
2023-02-04T08:15:24.895Z,0.70
2023-02-04T08:18:26.372Z,0.50
2023-02-04T08:21:27.923Z,0.52
2023-02-04T08:24:29.419Z,0.60
2023-02-04T08:27:31.226Z,0.63
2023-02-04T08:30:33.007Z,0.45
2023-02-04T08:33:34.763Z,0.52
2023-02-04T08:36:36.259Z,0.50
2023-02-04T08:39:38.411Z,0.60
2023-02-04T08:42:39.904Z,0.45
2023-02-04T08:45:41.487Z,0.70
2023-02-04T08:48:43.054Z,0.63
2023-02-04T08:51:44.610Z,0.60
2023-02-04T08:54:46.282Z,0.50
2023-02-04T08:57:47.757Z,0.60
2023-02-04T09:00:49.286Z,0.43
2023-02-04T09:03:50.816Z,0.68
2023-02-04T09:06:52.354Z,0.55
2023-02-04T09:09:53.832Z,0.70
2023-02-04T09:12:56.112Z,0.60
2023-02-04T09:15:57.738Z,0.70
2023-02-04T09:18:59.381Z,0.55
2023-02-04T09:22:00.866Z,0.70
2023-02-04T09:25:02.384Z,0.80
2023-02-04T09:28:03.988Z,0.77
2023-02-04T09:31:06.458Z,0.80
2023-02-04T09:34:08.017Z,0.80
2023-02-04T09:37:09.573Z,0.90
2023-02-04T09:40:16.998Z,0.60
2023-02-04T09:43:27.641Z,0.75
2023-02-04T09:46:30.258Z,0.60
2023-02-04T09:49:32.461Z,0.60
2023-02-04T09:52:34.135Z,0.68
2023-02-04T09:55:39.250Z,0.75
2023-02-04T09:58:41.917Z,0.80
2023-02-04T10:01:44.224Z,0.60
2023-02-04T10:04:45.698Z,0.80
2023-02-04T10:07:47.749Z,0.98
2023-02-04T10:10:49.591Z,0.80
2023-02-04T10:13:54.589Z,0.65
2023-02-04T10:17:01.489Z,0.50
2023-02-04T10:20:03.907Z,0.60
2023-02-04T10:23:12.593Z,0.70
2023-02-04T10:26:15.365Z,0.70
2023-02-04T10:29:19.767Z,0.80
2023-02-04T10:32:33.391Z,0.60
2023-02-04T10:35:45.771Z,0.75
2023-02-04T10:38:59.945Z,0.70
2023-02-04T10:42:01.741Z,0.70
2023-02-04T10:45:04.011Z,0.60
2023-02-04T10:48:05.902Z,0.70
2023-02-04T10:51:12.710Z,0.80
2023-02-04T10:54:35.019Z,0.70
2023-02-04T10:57:39.758Z,0.60
2023-02-04T11:00:41.552Z,0.70
2023-02-04T11:03:45.336Z,0.80
2023-02-04T11:06:47.889Z,0.73
2023-02-04T11:09:49.804Z,0.63
2023-02-04T11:12:53.997Z,0.50
2023-02-04T11:16:18.688Z,0.73
2023-02-04T11:19:36.469Z,0.70
2023-02-04T11:22:44.279Z,0.70
2023-02-04T11:25:45.883Z,0.68
2023-02-04T11:28:59.381Z,0.70
2023-02-04T11:32:04.661Z,0.65
2023-02-04T11:35:10.329Z,0.77
2023-02-04T11:38:29.287Z,0.82
2023-02-04T11:41:33.260Z,0.80
2023-02-04T11:44:34.785Z,0.60
2023-02-04T11:47:36.908Z,0.70
2023-02-04T11:50:38.819Z,1.00
2023-02-04T11:53:40.482Z,1.05
2023-02-04T11:56:42.210Z,0.60
2023-02-04T11:59:43.706Z,0.73
2023-02-04T12:02:51.840Z,0.70
2023-02-04T12:05:55.068Z,0.75
2023-02-04T12:09:06.042Z,0.80
2023-02-04T12:12:07.645Z,0.60
2023-02-04T12:15:16.028Z,0.60
2023-02-04T12:18:17.782Z,0.60
2023-02-04T12:21:19.432Z,0.68
2023-02-04T12:24:20.954Z,0.75
2023-02-04T12:27:22.963Z,0.63
2023-02-04T12:30:26.059Z,0.70
2023-02-04T12:33:27.743Z,0.85
2023-02-04T12:36:29.764Z,0.80
2023-02-04T12:39:31.960Z,0.70
2023-02-04T12:42:33.497Z,1.00
2023-02-04T12:45:35.114Z,0.52
2023-02-04T12:48:40.870Z,0.70
2023-02-04T12:51:42.341Z,0.50
2023-02-04T12:54:43.802Z,0.55
2023-02-04T12:57:45.299Z,0.80
2023-02-04T13:00:46.826Z,0.60
2023-02-04T13:03:48.310Z,0.60
2023-02-04T13:06:49.819Z,0.70
2023-02-04T13:09:52.226Z,0.70
2023-02-04T13:12:53.704Z,0.70
2023-02-04T13:15:55.262Z,0.70
2023-02-04T13:18:56.943Z,0.73
2023-02-04T13:21:59.189Z,0.77
2023-02-04T13:25:01.747Z,0.60
2023-02-04T13:28:05.600Z,0.70
2023-02-04T13:31:07.683Z,0.70
2023-02-04T13:34:09.299Z,0.70
2023-02-04T13:37:10.987Z,0.52
2023-02-04T13:40:13.028Z,0.80
2023-02-04T13:43:14.628Z,0.68
2023-02-04T13:46:16.113Z,0.65
2023-02-04T13:49:17.611Z,0.70
2023-02-04T13:52:19.195Z,0.50
2023-02-04T13:55:21.093Z,0.70
2023-02-04T13:58:22.562Z,0.60
2023-02-04T14:01:24.214Z,0.80
2023-02-04T14:04:27.008Z,0.70
2023-02-04T14:07:28.528Z,0.50
2023-02-04T14:10:30.351Z,0.60
2023-02-04T14:13:32.000Z,0.70
2023-02-04T14:16:33.709Z,0.50
2023-02-04T14:19:35.948Z,0.70
2023-02-04T14:22:37.396Z,0.57
2023-02-04T14:25:38.900Z,0.70
2023-02-04T14:28:40.373Z,0.60
2023-02-04T14:31:42.217Z,0.75
2023-02-04T14:34:43.699Z,0.70
2023-02-04T14:37:45.397Z,0.60
2023-02-04T14:40:47.033Z,0.55
2023-02-04T14:43:48.807Z,0.63
2023-02-04T14:46:50.451Z,0.77
2023-02-04T14:49:52.057Z,0.75
2023-02-04T14:52:54.406Z,0.60
2023-02-04T14:55:55.992Z,0.55
2023-02-04T14:58:57.516Z,0.70
2023-02-04T15:01:59.158Z,0.60
2023-02-04T15:05:00.725Z,0.70
2023-02-04T15:08:02.371Z,0.70
2023-02-04T15:11:03.988Z,0.50
2023-02-04T15:14:05.514Z,0.60
2023-02-04T15:17:07.022Z,0.70
2023-02-04T15:20:09.191Z,0.50
2023-02-04T15:23:13.056Z,0.70
2023-02-04T15:26:14.984Z,0.60
2023-02-04T15:29:17.102Z,0.60
2023-02-04T15:32:18.833Z,0.60
2023-02-04T15:35:21.788Z,0.77
2023-02-04T15:38:24.108Z,0.60
2023-02-04T15:41:25.928Z,0.60
2023-02-04T15:44:27.509Z,0.77
2023-02-04T15:47:29.076Z,0.50
2023-02-04T15:50:31.230Z,0.60
2023-02-04T15:53:34.714Z,0.63
2023-02-04T15:56:36.208Z,0.60
2023-02-04T15:59:37.712Z,0.60
2023-02-04T16:02:39.278Z,0.35
2023-02-04T16:05:40.805Z,0.70
2023-02-04T16:08:42.318Z,0.70
2023-02-04T16:11:43.839Z,0.60
2023-02-04T16:14:45.312Z,0.60
2023-02-04T16:17:46.823Z,0.60
2023-02-04T16:20:48.255Z,0.70
2023-02-04T16:23:49.724Z,0.60
2023-02-04T16:26:51.224Z,0.70
2023-02-04T16:29:54.865Z,0.70
2023-02-04T16:32:58.015Z,0.70
2023-02-04T16:36:11.577Z,0.70
2023-02-04T16:39:13.271Z,0.70
2023-02-04T16:42:15.196Z,0.70
2023-02-04T16:45:16.746Z,0.60
2023-02-04T16:48:18.352Z,0.70
2023-02-04T16:51:20.390Z,0.70
2023-02-04T16:54:21.833Z,0.77
2023-02-04T16:57:23.767Z,0.80
2023-02-04T17:00:25.216Z,0.95
2023-02-04T17:03:28.024Z,0.77
2023-02-04T17:06:32.469Z,0.90
2023-02-04T17:09:33.955Z,0.90
2023-02-04T17:12:35.393Z,0.80
2023-02-04T17:15:36.918Z,0.80
2023-02-04T17:18:38.679Z,1.08
2023-02-04T17:21:40.791Z,1.00
2023-02-04T17:24:43.654Z,1.00
2023-02-04T17:27:45.155Z,0.88
2023-02-04T17:30:46.764Z,1.30
2023-02-04T17:33:48.623Z,0.93
2023-02-04T17:36:50.092Z,0.90
2023-02-04T17:39:51.586Z,1.10
2023-02-04T17:42:53.263Z,1.10
2023-02-04T17:45:54.906Z,0.90
2023-02-04T17:48:56.535Z,0.98
2023-02-04T17:51:57.991Z,0.93
2023-02-04T17:55:10.036Z,1.10
2023-02-04T17:58:19.971Z,1.50
2023-02-04T18:01:23.681Z,1.25
2023-02-04T18:04:25.565Z,1.33
2023-02-04T18:07:27.155Z,1.50
2023-02-04T18:10:35.530Z,1.23
2023-02-04T18:13:37.121Z,1.58
2023-02-04T18:16:39.843Z,1.50
2023-02-04T18:19:44.891Z,1.40
2023-02-04T18:22:53.563Z,1.30
2023-02-04T18:25:56.042Z,1.40
2023-02-04T18:28:59.432Z,1.90
2023-02-04T18:32:20.656Z,1.65
2023-02-04T18:35:46.989Z,2.40
2023-02-04T18:38:49.820Z,2.30
2023-02-04T18:41:52.075Z,2.00
2023-02-04T18:44:54.983Z,2.10
2023-02-04T18:48:01.450Z,1.90
2023-02-04T18:51:17.977Z,2.10
2023-02-04T18:54:36.751Z,2.13
2023-02-04T18:57:39.607Z,1.90
2023-02-04T19:00:42.086Z,1.95
2023-02-04T19:03:58.497Z,2.30
2023-02-04T19:07:01.311Z,1.90
2023-02-04T19:10:25.791Z,1.90
2023-02-04T19:13:42.151Z,2.30
2023-02-04T19:16:45.101Z,1.90
2023-02-04T19:19:51.380Z,2.40
2023-02-04T19:22:54.956Z,1.88
2023-02-04T19:25:56.620Z,1.88
2023-02-04T19:28:58.209Z,1.90
2023-02-04T19:32:18.565Z,2.03
2023-02-04T19:35:22.512Z,2.00
2023-02-04T19:38:45.129Z,1.90
2023-02-04T19:41:49.020Z,2.15
2023-02-04T19:44:51.486Z,1.90
2023-02-04T19:47:54.976Z,1.80
2023-02-04T19:50:56.441Z,2.10
2023-02-04T19:54:10.205Z,1.80
2023-02-04T19:57:29.186Z,1.85
2023-02-04T20:00:33.622Z,2.00
2023-02-04T20:03:44.113Z,1.80
2023-02-04T20:06:47.628Z,1.60
2023-02-04T20:09:58.721Z,2.00
2023-02-04T20:13:16.494Z,2.00
2023-02-04T20:16:38.451Z,1.98
2023-02-04T20:19:41.949Z,1.58
2023-02-04T20:22:55.470Z,1.98
2023-02-04T20:25:57.182Z,2.00
2023-02-04T20:28:58.680Z,1.77
2023-02-04T20:32:01.066Z,1.60
2023-02-04T20:35:11.622Z,1.70
2023-02-04T20:38:17.426Z,1.67
2023-02-04T20:41:20.808Z,1.73
2023-02-04T20:44:27.537Z,1.70
2023-02-04T20:47:29.794Z,1.80
2023-02-04T20:50:51.899Z,1.60
2023-02-04T20:53:58.962Z,1.83
2023-02-04T20:57:17.597Z,1.80
2023-02-04T21:00:29.676Z,1.80
2023-02-04T21:03:36.670Z,1.73
2023-02-04T21:06:38.356Z,1.60
2023-02-04T21:09:40.091Z,1.60
2023-02-04T21:12:45.642Z,1.92
2023-02-04T21:15:47.880Z,1.70
2023-02-04T21:18:50.565Z,1.50
2023-02-04T21:21:52.372Z,1.58
2023-02-04T21:24:53.866Z,1.75
2023-02-04T21:27:56.412Z,1.45
2023-02-04T21:30:59.135Z,1.65
2023-02-04T21:34:00.713Z,1.50
2023-02-04T21:37:02.326Z,1.50
2023-02-04T21:40:04.141Z,1.55
2023-02-04T21:43:07.994Z,1.40
2023-02-04T21:46:09.514Z,1.38
2023-02-04T21:49:10.992Z,1.40
2023-02-04T21:52:13.209Z,1.45
2023-02-04T21:55:17.097Z,1.40
2023-02-04T21:58:18.556Z,1.50
2023-02-04T22:01:20.149Z,1.40
2023-02-04T22:04:21.706Z,1.38
2023-02-04T22:07:23.250Z,1.30
2023-02-04T22:10:25.638Z,1.33
2023-02-04T22:13:45.966Z,1.52
2023-02-04T22:16:47.474Z,1.58
2023-02-04T22:19:48.954Z,1.40
2023-02-04T22:22:50.868Z,1.40
2023-02-04T22:25:52.383Z,1.50
2023-02-04T22:28:53.820Z,1.50
2023-02-04T22:31:56.066Z,1.60
2023-02-04T22:34:57.818Z,1.33
2023-02-04T22:38:01.966Z,1.30
2023-02-04T22:41:03.886Z,1.30
2023-02-04T22:44:05.478Z,1.30
2023-02-04T22:47:06.977Z,1.30
2023-02-04T22:50:08.965Z,1.30
2023-02-04T22:53:10.479Z,1.30
2023-02-04T22:56:11.976Z,1.33
2023-02-04T22:59:13.440Z,1.58
2023-02-04T23:02:15.070Z,1.48
2023-02-04T23:05:16.624Z,1.25
2023-02-04T23:08:18.205Z,1.40
2023-02-04T23:11:20.014Z,1.50
2023-02-04T23:14:21.473Z,1.40
2023-02-04T23:17:22.954Z,1.40
2023-02-04T23:20:24.424Z,1.70
2023-02-04T23:23:27.562Z,1.30
2023-02-04T23:26:29.220Z,1.42
2023-02-04T23:29:35.304Z,1.40
2023-02-04T23:32:36.988Z,1.30
2023-02-04T23:35:38.498Z,1.33
2023-02-04T23:38:39.962Z,1.30
2023-02-04T23:41:41.439Z,1.35
2023-02-04T23:44:42.882Z,1.42
2023-02-04T23:47:44.328Z,1.40
2023-02-04T23:50:47.647Z,1.33
2023-02-04T23:53:49.130Z,1.40
2023-02-04T23:56:50.751Z,1.40
2023-02-04T23:59:52.250Z,1.33
